Terminal Aerodrome Forecast
Issued by NWS Hastings, NE

Home | Current Version | Previous Version | Text Only | Print | Product List | Glossary On
Versions: 1 2 3 4 5 6 7 8 9 10 11 12 13 14 15 16 17 18 19 20 21 22 23 24 25 26 27 28 29 30 31 32
000
FTUS43 KGID 230227 AAA
TAFGRI
TAF AMD
KGRI 230227Z 2302/2324 13010KT P6SM SCT005 OVC030
     FM230400 13010KT 5SM -DZ BR BKN005 OVC020=

USA.gov is the U.S. government's official web portal to all federal, state and local government web resources and services.